UAE5CL NZCH-YSSY
Flight info
| Callsign | UAE5CL |
|---|---|
| Flight time | 2h 58m |
| Altitude | 40000 |
| Route | VANDA N750 PLUGA DCT RIKNI N774 MARLN |
| Aircraft | A359/H-SDE2E3GHIJ3J4J5LM1ORWXY/LB1D1 |
Departure
| Time | 2026-05-05 05:52 |
|---|---|
| Airport | Christchurch International Airport (NZCH) |
Arrival
| Time | 2026-05-05 08:50 |
|---|---|
| Airport | Sydney Kingsford Smith International Airport (YSSY) |
| Time | Latitude | Longitude | Altitude | Speed | Heading |
|---|---|---|---|---|---|
| 2026-05-05 05:27 | -43.48675 | 172.54133 | 115 ft | 0 kts | 226° |
| 2026-05-05 05:38 | -43.48673 | 172.54135 | 115 ft | 2 kts | 226° |
| 2026-05-05 05:38 | -43.48656 | 172.54160 | 111 ft | 4 kts | 225° |
| 2026-05-05 05:38 | -43.48638 | 172.54185 | 110 ft | 2 kts | 225° |
| 2026-05-05 05:39 | -43.48622 | 172.54208 | 110 ft | 4 kts | 243° |
| 2026-05-05 05:39 | -43.48615 | 172.54236 | 111 ft | 4 kts | 278° |
| 2026-05-05 05:39 | -43.48623 | 172.54265 | 110 ft | 4 kts | 309° |
| 2026-05-05 05:39 | -43.48641 | 172.54292 | 111 ft | 4 kts | 313° |
| 2026-05-05 05:40 | -43.48647 | 172.54301 | 112 ft | 0 kts | 310° |
| 2026-05-05 05:43 | -43.48638 | 172.54286 | 112 ft | 7 kts | 310° |
| 2026-05-05 05:44 | -43.48600 | 172.54224 | 112 ft | 10 kts | 310° |
| 2026-05-05 05:44 | -43.48553 | 172.54147 | 111 ft | 12 kts | 310° |
| 2026-05-05 05:44 | -43.48526 | 172.54104 | 110 ft | 5 kts | 310° |
| 2026-05-05 05:44 | -43.48502 | 172.54047 | 112 ft | 8 kts | 293° |
| 2026-05-05 05:45 | -43.48514 | 172.53984 | 112 ft | 7 kts | 228° |
| 2026-05-05 05:45 | -43.48561 | 172.53930 | 113 ft | 11 kts | 219° |
| 2026-05-05 05:45 | -43.48633 | 172.53848 | 111 ft | 15 kts | 219° |
| 2026-05-05 05:45 | -43.48718 | 172.53750 | 113 ft | 17 kts | 220° |
| 2026-05-05 05:46 | -43.48812 | 172.53640 | 112 ft | 19 kts | 220° |
| 2026-05-05 05:46 | -43.48892 | 172.53553 | 114 ft | 11 kts | 213° |
| 2026-05-05 05:46 | -43.48954 | 172.53489 | 114 ft | 10 kts | 219° |
| 2026-05-05 05:46 | -43.49008 | 172.53428 | 118 ft | 12 kts | 219° |
| 2026-05-05 05:47 | -43.49082 | 172.53346 | 114 ft | 15 kts | 220° |
| 2026-05-05 05:47 | -43.49158 | 172.53256 | 118 ft | 14 kts | 220° |
| 2026-05-05 05:47 | -43.49237 | 172.53164 | 118 ft | 15 kts | 219° |
| 2026-05-05 05:47 | -43.49315 | 172.53075 | 123 ft | 14 kts | 220° |
| 2026-05-05 05:48 | -43.49384 | 172.52994 | 125 ft | 13 kts | 220° |
| 2026-05-05 05:48 | -43.49459 | 172.52907 | 126 ft | 14 kts | 220° |
| 2026-05-05 05:48 | -43.49532 | 172.52822 | 131 ft | 14 kts | 220° |
| 2026-05-05 05:48 | -43.49611 | 172.52731 | 134 ft | 17 kts | 220° |
| 2026-05-05 05:49 | -43.49706 | 172.52621 | 130 ft | 18 kts | 220° |
| 2026-05-05 05:49 | -43.49763 | 172.52554 | 129 ft | 8 kts | 220° |
| 2026-05-05 05:49 | -43.49796 | 172.52488 | 128 ft | 9 kts | 258° |
| 2026-05-05 05:49 | -43.49792 | 172.52395 | 131 ft | 11 kts | 274° |
| 2026-05-05 05:50 | -43.49783 | 172.52280 | 127 ft | 13 kts | 288° |
| 2026-05-05 05:50 | -43.49725 | 172.52258 | 125 ft | 9 kts | 29° |
| 2026-05-05 05:50 | -43.49677 | 172.52311 | 126 ft | 0 kts | 39° |
| 2026-05-05 05:51 | -43.49669 | 172.52320 | 127 ft | 10 kts | 39° |
| 2026-05-05 05:51 | -43.49436 | 172.52589 | 128 ft | 77 kts | 40° |
| 2026-05-05 05:51 | -43.48867 | 172.53246 | 116 ft | 135 kts | 40° |
| 2026-05-05 05:51 | -43.48030 | 172.54220 | 280 ft | 169 kts | 40° |
| 2026-05-05 05:52 | -43.47190 | 172.55269 | 1087 ft | 154 kts | 45° |
| 2026-05-05 05:52 | -43.46285 | 172.56028 | 1514 ft | 164 kts | 21° |
| 2026-05-05 05:52 | -43.45110 | 172.56622 | 1774 ft | 192 kts | 19° |
| 2026-05-05 05:52 | -43.43787 | 172.57342 | 2026 ft | 220 kts | 22° |
| 2026-05-05 05:53 | -43.42315 | 172.58237 | 2421 ft | 240 kts | 23° |
| 2026-05-05 05:53 | -43.40762 | 172.59208 | 3040 ft | 249 kts | 22° |
| 2026-05-05 05:53 | -43.39058 | 172.59672 | 3602 ft | 254 kts | 354° |
| 2026-05-05 05:53 | -43.37434 | 172.58802 | 4306 ft | 255 kts | 321° |
| 2026-05-05 05:54 | -43.36375 | 172.56884 | 5073 ft | 255 kts | 297° |
| 2026-05-05 05:54 | -43.35600 | 172.54659 | 5806 ft | 258 kts | 296° |
| 2026-05-05 05:54 | -43.34786 | 172.52432 | 6529 ft | 263 kts | 299° |
| 2026-05-05 05:54 | -43.33920 | 172.50195 | 7272 ft | 267 kts | 300° |
| 2026-05-05 05:55 | -43.33025 | 172.47935 | 8062 ft | 270 kts | 300° |
| 2026-05-05 05:55 | -43.32716 | 172.47160 | 8337 ft | 271 kts | 301° |
| 2026-05-05 05:55 | -43.32507 | 172.46639 | 8516 ft | 272 kts | 301° |
| 2026-05-05 05:56 | -43.32377 | 172.46313 | 8641 ft | 272 kts | 301° |
| 2026-05-05 05:56 | -43.31696 | 172.44617 | 9244 ft | 275 kts | 301° |
| 2026-05-05 05:56 | -43.31530 | 172.44206 | 9391 ft | 275 kts | 301° |
| 2026-05-05 05:57 | -43.31018 | 172.42936 | 9830 ft | 277 kts | 301° |
| 2026-05-05 05:57 | -43.30511 | 172.41679 | 10253 ft | 280 kts | 301° |
| 2026-05-05 05:57 | -43.29533 | 172.39270 | 10637 ft | 299 kts | 301° |
| 2026-05-05 05:57 | -43.28491 | 172.36707 | 10946 ft | 318 kts | 301° |
| 2026-05-05 05:58 | -43.28191 | 172.35969 | 11043 ft | 323 kts | 301° |
| 2026-05-05 05:58 | -43.27531 | 172.34395 | 11219 ft | 333 kts | 303° |
| 2026-05-05 05:59 | -43.26856 | 172.33002 | 11399 ft | 340 kts | 307° |
| 2026-05-05 05:59 | -43.25396 | 172.30389 | 11961 ft | 347 kts | 310° |
| 2026-05-05 05:59 | -43.23921 | 172.27817 | 12603 ft | 352 kts | 309° |
| 2026-05-05 05:59 | -43.22401 | 172.25142 | 13288 ft | 356 kts | 309° |
| 2026-05-05 06:00 | -43.20873 | 172.22444 | 13941 ft | 361 kts | 309° |
| 2026-05-05 06:00 | -43.19322 | 172.19704 | 14571 ft | 365 kts | 309° |
| 2026-05-05 06:00 | -43.17752 | 172.16933 | 15178 ft | 369 kts | 309° |
| 2026-05-05 06:00 | -43.16167 | 172.14139 | 15803 ft | 373 kts | 309° |
| 2026-05-05 06:01 | -43.14587 | 172.11357 | 16437 ft | 377 kts | 310° |
| 2026-05-05 06:01 | -43.12965 | 172.08502 | 17025 ft | 381 kts | 310° |
| 2026-05-05 06:01 | -43.11330 | 172.05625 | 17664 ft | 385 kts | 310° |
| 2026-05-05 06:01 | -43.09666 | 172.02704 | 18260 ft | 390 kts | 310° |
| 2026-05-05 06:02 | -43.07991 | 171.99767 | 18886 ft | 394 kts | 310° |
| 2026-05-05 06:02 | -43.06298 | 171.96800 | 19426 ft | 398 kts | 310° |
| 2026-05-05 06:02 | -43.05164 | 171.94816 | 19805 ft | 400 kts | 310° |
| 2026-05-05 06:02 | -43.02857 | 171.90780 | 20573 ft | 405 kts | 310° |
| 2026-05-05 06:03 | -43.01700 | 171.88758 | 20942 ft | 408 kts | 310° |
| 2026-05-05 06:03 | -42.99947 | 171.85696 | 21542 ft | 411 kts | 310° |
| 2026-05-05 06:03 | -42.98172 | 171.82599 | 22115 ft | 415 kts | 310° |
| 2026-05-05 06:03 | -42.96386 | 171.79485 | 22701 ft | 419 kts | 310° |
| 2026-05-05 06:04 | -42.94576 | 171.76336 | 23264 ft | 423 kts | 310° |
| 2026-05-05 06:04 | -42.92754 | 171.73171 | 23838 ft | 427 kts | 310° |
| 2026-05-05 06:04 | -42.90915 | 171.69977 | 24336 ft | 430 kts | 310° |
| 2026-05-05 06:04 | -42.89073 | 171.66739 | 24812 ft | 434 kts | 308° |
| 2026-05-05 06:05 | -42.87469 | 171.63222 | 25270 ft | 439 kts | 298° |
| 2026-05-05 06:05 | -42.86377 | 171.59328 | 25766 ft | 443 kts | 287° |
| 2026-05-05 06:05 | -42.85609 | 171.55250 | 26274 ft | 446 kts | 285° |
| 2026-05-05 06:05 | -42.84870 | 171.51123 | 26773 ft | 448 kts | 285° |
| 2026-05-05 06:06 | -42.84113 | 171.46988 | 27255 ft | 451 kts | 285° |
| 2026-05-05 06:06 | -42.83342 | 171.42831 | 27732 ft | 454 kts | 285° |
| 2026-05-05 06:06 | -42.82562 | 171.38647 | 28218 ft | 456 kts | 285° |
| 2026-05-05 06:06 | -42.81777 | 171.34456 | 28684 ft | 459 kts | 284° |
| 2026-05-05 06:07 | -42.80982 | 171.30230 | 29147 ft | 461 kts | 284° |
| 2026-05-05 06:07 | -42.80183 | 171.25987 | 29603 ft | 464 kts | 284° |
| 2026-05-05 06:07 | -42.79375 | 171.21716 | 30053 ft | 466 kts | 284° |
| 2026-05-05 06:07 | -42.78563 | 171.17428 | 30457 ft | 469 kts | 284° |
| 2026-05-05 06:08 | -42.77744 | 171.13118 | 30789 ft | 472 kts | 284° |
| 2026-05-05 06:08 | -42.76928 | 171.08832 | 31089 ft | 475 kts | 284° |
| 2026-05-05 06:08 | -42.76086 | 171.04415 | 31407 ft | 478 kts | 284° |
| 2026-05-05 06:08 | -42.75257 | 171.00078 | 31699 ft | 480 kts | 284° |
| 2026-05-05 06:09 | -42.74414 | 170.95680 | 31986 ft | 482 kts | 284° |
| 2026-05-05 06:09 | -42.73566 | 170.91271 | 32260 ft | 485 kts | 284° |
| 2026-05-05 06:09 | -42.72710 | 170.86825 | 32543 ft | 487 kts | 284° |
| 2026-05-05 06:09 | -42.71848 | 170.82359 | 32815 ft | 489 kts | 284° |
| 2026-05-05 06:10 | -42.70984 | 170.77889 | 33182 ft | 488 kts | 284° |
| 2026-05-05 06:10 | -42.70118 | 170.73425 | 33588 ft | 487 kts | 284° |
| 2026-05-05 06:10 | -42.69254 | 170.68979 | 33973 ft | 487 kts | 284° |
| 2026-05-05 06:10 | -42.68389 | 170.64537 | 34322 ft | 486 kts | 284° |
| 2026-05-05 06:11 | -42.67521 | 170.60095 | 34657 ft | 485 kts | 284° |
| 2026-05-05 06:11 | -42.66654 | 170.55661 | 34987 ft | 484 kts | 284° |
| 2026-05-05 06:11 | -42.65790 | 170.51256 | 35319 ft | 482 kts | 284° |
| 2026-05-05 06:11 | -42.64925 | 170.46851 | 35646 ft | 481 kts | 284° |
| 2026-05-05 06:12 | -42.64072 | 170.42520 | 35937 ft | 480 kts | 284° |
| 2026-05-05 06:12 | -42.63207 | 170.38142 | 36244 ft | 479 kts | 284° |
| 2026-05-05 06:12 | -42.62343 | 170.33774 | 36534 ft | 478 kts | 285° |
| 2026-05-05 06:12 | -42.61478 | 170.29412 | 36817 ft | 477 kts | 285° |
| 2026-05-05 06:13 | -42.60615 | 170.25069 | 37078 ft | 476 kts | 285° |
| 2026-05-05 06:13 | -42.59750 | 170.20722 | 37339 ft | 476 kts | 285° |
| 2026-05-05 06:13 | -42.58886 | 170.16396 | 37591 ft | 475 kts | 285° |
| 2026-05-05 06:13 | -42.58020 | 170.12064 | 37837 ft | 474 kts | 285° |
| 2026-05-05 06:14 | -42.57167 | 170.07806 | 38080 ft | 474 kts | 285° |
| 2026-05-05 06:14 | -42.56302 | 170.03500 | 38315 ft | 473 kts | 285° |
| 2026-05-05 06:14 | -42.55436 | 169.99199 | 38562 ft | 472 kts | 285° |
| 2026-05-05 06:14 | -42.54569 | 169.94903 | 38801 ft | 472 kts | 285° |
| 2026-05-05 06:15 | -42.53714 | 169.90671 | 39010 ft | 471 kts | 285° |
| 2026-05-05 06:15 | -42.52847 | 169.86392 | 39204 ft | 470 kts | 285° |
| 2026-05-05 06:15 | -42.51980 | 169.82118 | 39351 ft | 470 kts | 285° |
| 2026-05-05 06:15 | -42.51112 | 169.77851 | 39515 ft | 469 kts | 285° |
| 2026-05-05 06:16 | -42.50243 | 169.73590 | 39663 ft | 469 kts | 285° |
| 2026-05-05 06:16 | -42.49371 | 169.69320 | 39813 ft | 469 kts | 285° |
| 2026-05-05 06:16 | -42.48502 | 169.65075 | 39947 ft | 468 kts | 285° |
| 2026-05-05 06:16 | -42.47629 | 169.60821 | 40088 ft | 468 kts | 285° |
| 2026-05-05 06:17 | -42.46755 | 169.56566 | 40217 ft | 468 kts | 285° |
| 2026-05-05 06:17 | -42.45882 | 169.52329 | 40337 ft | 467 kts | 285° |
| 2026-05-05 06:17 | -42.44126 | 169.43829 | 40439 ft | 471 kts | 285° |
| 2026-05-05 06:18 | -42.42303 | 169.35320 | 40437 ft | 471 kts | 289° |
| 2026-05-05 06:18 | -42.39661 | 169.27221 | 40435 ft | 470 kts | 295° |
| 2026-05-05 06:19 | -42.36754 | 169.19306 | 40432 ft | 470 kts | 296° |
| 2026-05-05 06:19 | -42.33842 | 169.11446 | 40430 ft | 470 kts | 296° |
| 2026-05-05 06:20 | -42.30945 | 169.03557 | 40427 ft | 470 kts | 296° |
| 2026-05-05 06:20 | -42.28045 | 168.95637 | 40424 ft | 470 kts | 296° |
| 2026-05-05 06:21 | -42.25147 | 168.87734 | 40423 ft | 470 kts | 296° |
| 2026-05-05 06:21 | -42.22238 | 168.79829 | 40419 ft | 470 kts | 296° |
| 2026-05-05 06:22 | -42.19326 | 168.71942 | 40417 ft | 470 kts | 296° |
| 2026-05-05 06:22 | -42.16406 | 168.64054 | 40414 ft | 469 kts | 296° |
| 2026-05-05 06:23 | -42.13488 | 168.56195 | 40413 ft | 469 kts | 296° |
| 2026-05-05 06:23 | -42.10558 | 168.48322 | 40409 ft | 469 kts | 296° |
| 2026-05-05 06:24 | -42.07650 | 168.40531 | 40406 ft | 469 kts | 296° |
| 2026-05-05 06:24 | -42.04717 | 168.32694 | 40403 ft | 468 kts | 296° |
| 2026-05-05 06:25 | -42.01782 | 168.24873 | 40401 ft | 468 kts | 296° |
| 2026-05-05 06:25 | -41.98837 | 168.17048 | 40400 ft | 468 kts | 296° |
| 2026-05-05 06:26 | -41.95892 | 168.09244 | 40394 ft | 468 kts | 296° |
| 2026-05-05 06:26 | -41.92943 | 168.01452 | 40392 ft | 468 kts | 296° |
| 2026-05-05 06:27 | -41.88513 | 167.89783 | 40391 ft | 467 kts | 296° |
| 2026-05-05 06:28 | -41.85557 | 167.82023 | 40385 ft | 467 kts | 296° |
| 2026-05-05 06:28 | -41.82595 | 167.74270 | 40385 ft | 467 kts | 296° |
| 2026-05-05 06:29 | -41.79647 | 167.66572 | 40379 ft | 467 kts | 296° |
| 2026-05-05 06:29 | -41.76679 | 167.58844 | 40375 ft | 466 kts | 296° |
| 2026-05-05 06:30 | -41.73707 | 167.51124 | 40371 ft | 466 kts | 296° |
| 2026-05-05 06:30 | -41.70729 | 167.43412 | 40371 ft | 466 kts | 296° |
| 2026-05-05 06:31 | -41.67748 | 167.35710 | 40365 ft | 465 kts | 296° |
| 2026-05-05 06:31 | -41.64767 | 167.28031 | 40361 ft | 465 kts | 297° |
| 2026-05-05 06:32 | -41.61800 | 167.20403 | 40364 ft | 465 kts | 297° |
| 2026-05-05 06:32 | -41.58807 | 167.12735 | 40357 ft | 465 kts | 297° |
| 2026-05-05 06:33 | -41.55812 | 167.05078 | 40358 ft | 465 kts | 297° |
| 2026-05-05 06:33 | -41.52809 | 166.97421 | 40351 ft | 465 kts | 297° |
| 2026-05-05 06:34 | -41.49805 | 166.89784 | 40346 ft | 464 kts | 297° |
| 2026-05-05 06:34 | -41.46798 | 166.82156 | 40345 ft | 464 kts | 297° |
| 2026-05-05 06:35 | -41.43791 | 166.74549 | 40343 ft | 464 kts | 297° |
| 2026-05-05 06:35 | -41.40780 | 166.66952 | 40339 ft | 464 kts | 297° |
| 2026-05-05 06:36 | -41.37766 | 166.59366 | 40338 ft | 463 kts | 297° |
| 2026-05-05 06:36 | -41.34765 | 166.51834 | 40334 ft | 463 kts | 297° |
| 2026-05-05 06:37 | -41.31747 | 166.44278 | 40332 ft | 463 kts | 297° |
| 2026-05-05 06:37 | -41.28721 | 166.36721 | 40326 ft | 462 kts | 297° |
| 2026-05-05 06:38 | -41.25691 | 166.29172 | 40323 ft | 462 kts | 297° |
| 2026-05-05 06:38 | -41.22661 | 166.21645 | 40319 ft | 462 kts | 297° |
| 2026-05-05 06:39 | -41.19623 | 166.14116 | 40318 ft | 462 kts | 297° |
| 2026-05-05 06:39 | -41.16584 | 166.06601 | 40314 ft | 462 kts | 297° |
| 2026-05-05 06:40 | -41.13557 | 165.99137 | 40312 ft | 461 kts | 297° |
| 2026-05-05 06:40 | -41.10509 | 165.91642 | 40311 ft | 461 kts | 298° |
| 2026-05-05 06:41 | -41.07458 | 165.84156 | 40305 ft | 461 kts | 298° |
| 2026-05-05 06:41 | -41.04404 | 165.76682 | 40303 ft | 461 kts | 298° |
| 2026-05-05 06:42 | -41.01371 | 165.69279 | 40299 ft | 460 kts | 298° |
| 2026-05-05 06:42 | -40.98315 | 165.61835 | 40294 ft | 460 kts | 298° |
| 2026-05-05 06:43 | -40.95249 | 165.54389 | 40295 ft | 459 kts | 298° |
| 2026-05-05 06:43 | -40.92187 | 165.46969 | 40290 ft | 459 kts | 298° |
| 2026-05-05 06:44 | -40.89123 | 165.39563 | 40291 ft | 459 kts | 298° |
| 2026-05-05 06:44 | -40.86056 | 165.32168 | 40287 ft | 458 kts | 298° |
| 2026-05-05 06:45 | -40.83004 | 165.24830 | 40282 ft | 458 kts | 298° |
| 2026-05-05 06:45 | -40.79933 | 165.17460 | 40281 ft | 458 kts | 298° |
| 2026-05-05 06:46 | -40.76856 | 165.10097 | 40277 ft | 457 kts | 298° |
| 2026-05-05 06:46 | -40.73782 | 165.02757 | 40271 ft | 457 kts | 298° |
| 2026-05-05 06:47 | -40.70701 | 164.95420 | 40271 ft | 457 kts | 298° |
| 2026-05-05 06:47 | -40.67620 | 164.88099 | 40268 ft | 457 kts | 298° |
| 2026-05-05 06:48 | -40.64536 | 164.80788 | 40267 ft | 456 kts | 298° |
| 2026-05-05 06:48 | -40.61448 | 164.73487 | 40264 ft | 456 kts | 298° |
| 2026-05-05 06:49 | -40.58359 | 164.66201 | 40261 ft | 456 kts | 299° |
| 2026-05-05 06:49 | -40.55288 | 164.58973 | 40255 ft | 455 kts | 299° |
| 2026-05-05 06:50 | -40.52194 | 164.51711 | 40251 ft | 455 kts | 299° |
| 2026-05-05 06:50 | -40.49093 | 164.44447 | 40248 ft | 455 kts | 299° |
| 2026-05-05 06:51 | -40.45992 | 164.37204 | 40250 ft | 455 kts | 299° |
| 2026-05-05 06:51 | -40.43393 | 164.31143 | 40243 ft | 454 kts | 299° |
| 2026-05-05 06:52 | -40.39787 | 164.22757 | 40241 ft | 454 kts | 299° |
| 2026-05-05 06:52 | -40.37183 | 164.16714 | 40239 ft | 454 kts | 299° |
| 2026-05-05 06:53 | -40.34071 | 164.09510 | 40238 ft | 454 kts | 299° |
| 2026-05-05 06:53 | -40.30976 | 164.02362 | 40233 ft | 454 kts | 299° |
| 2026-05-05 06:54 | -40.27858 | 163.95176 | 40229 ft | 453 kts | 300° |
| 2026-05-05 06:54 | -40.24738 | 163.88003 | 40225 ft | 453 kts | 300° |
| 2026-05-05 06:55 | -40.21613 | 163.80836 | 40223 ft | 453 kts | 300° |
| 2026-05-05 06:55 | -40.18485 | 163.73678 | 40226 ft | 453 kts | 300° |
| 2026-05-05 06:56 | -40.15352 | 163.66526 | 40220 ft | 453 kts | 300° |
| 2026-05-05 06:56 | -40.12219 | 163.59390 | 40213 ft | 453 kts | 300° |
| 2026-05-05 06:57 | -40.09082 | 163.52261 | 40212 ft | 452 kts | 300° |
| 2026-05-05 06:57 | -40.05960 | 163.45184 | 40210 ft | 452 kts | 300° |
| 2026-05-05 06:58 | -40.02809 | 163.38057 | 40210 ft | 452 kts | 300° |
| 2026-05-05 06:58 | -39.99664 | 163.30959 | 40204 ft | 452 kts | 300° |
| 2026-05-05 06:59 | -39.96513 | 163.23865 | 40201 ft | 452 kts | 300° |
| 2026-05-05 06:59 | -39.93358 | 163.16778 | 40197 ft | 452 kts | 300° |
| 2026-05-05 07:00 | -39.90197 | 163.09695 | 40196 ft | 451 kts | 300° |
| 2026-05-05 07:00 | -39.87055 | 163.02668 | 40194 ft | 451 kts | 300° |
| 2026-05-05 07:01 | -39.83889 | 162.95607 | 40191 ft | 451 kts | 300° |
| 2026-05-05 07:01 | -39.80723 | 162.88564 | 40187 ft | 450 kts | 300° |
| 2026-05-05 07:02 | -39.77561 | 162.81546 | 40184 ft | 450 kts | 300° |
| 2026-05-05 07:02 | -39.74396 | 162.74537 | 40183 ft | 449 kts | 300° |
| 2026-05-05 07:03 | -39.71252 | 162.67591 | 40185 ft | 448 kts | 300° |
| 2026-05-05 07:03 | -39.68088 | 162.60614 | 40172 ft | 448 kts | 300° |
| 2026-05-05 07:04 | -39.64925 | 162.53657 | 40173 ft | 447 kts | 300° |
| 2026-05-05 07:04 | -39.61755 | 162.46699 | 40171 ft | 447 kts | 301° |
| 2026-05-05 07:05 | -39.58586 | 162.39760 | 40167 ft | 447 kts | 301° |
| 2026-05-05 07:05 | -39.55409 | 162.32817 | 40162 ft | 447 kts | 301° |
| 2026-05-05 07:06 | -39.52234 | 162.25895 | 40163 ft | 446 kts | 301° |
| 2026-05-05 07:06 | -39.49061 | 162.18993 | 40159 ft | 446 kts | 301° |
| 2026-05-05 07:07 | -39.45906 | 162.12143 | 40156 ft | 446 kts | 301° |
| 2026-05-05 07:07 | -39.42726 | 162.05257 | 40153 ft | 445 kts | 301° |
| 2026-05-05 07:08 | -39.39546 | 161.98383 | 40152 ft | 445 kts | 301° |
| 2026-05-05 07:08 | -39.36369 | 161.91532 | 40143 ft | 444 kts | 301° |
| 2026-05-05 07:09 | -39.33192 | 161.84696 | 40143 ft | 444 kts | 301° |
| 2026-05-05 07:09 | -39.30006 | 161.77854 | 40144 ft | 443 kts | 301° |
| 2026-05-05 07:10 | -39.26842 | 161.71075 | 40142 ft | 443 kts | 301° |
| 2026-05-05 07:10 | -39.23661 | 161.64275 | 40136 ft | 442 kts | 301° |
| 2026-05-05 07:11 | -39.20483 | 161.57495 | 40133 ft | 441 kts | 301° |
| 2026-05-05 07:11 | -39.17308 | 161.50736 | 40131 ft | 440 kts | 301° |
| 2026-05-05 07:12 | -39.14130 | 161.43985 | 40128 ft | 440 kts | 301° |
| 2026-05-05 07:12 | -39.10953 | 161.37249 | 40124 ft | 440 kts | 301° |
| 2026-05-05 07:13 | -39.07774 | 161.30525 | 40121 ft | 439 kts | 301° |
| 2026-05-05 07:13 | -39.04590 | 161.23804 | 40121 ft | 439 kts | 301° |
| 2026-05-05 07:14 | -39.01430 | 161.17148 | 40120 ft | 438 kts | 301° |
| 2026-05-05 07:14 | -38.98248 | 161.10459 | 40115 ft | 438 kts | 301° |
| 2026-05-05 07:15 | -38.95069 | 161.03792 | 40111 ft | 437 kts | 301° |
| 2026-05-05 07:15 | -38.91891 | 160.97138 | 40107 ft | 437 kts | 301° |
| 2026-05-05 07:16 | -38.88711 | 160.90496 | 40107 ft | 436 kts | 301° |
| 2026-05-05 07:16 | -38.85533 | 160.83872 | 40102 ft | 435 kts | 301° |
| 2026-05-05 07:17 | -38.82353 | 160.77256 | 40099 ft | 435 kts | 301° |
| 2026-05-05 07:17 | -38.79201 | 160.70713 | 40096 ft | 434 kts | 301° |
| 2026-05-05 07:18 | -38.76026 | 160.64136 | 40093 ft | 434 kts | 301° |
| 2026-05-05 07:18 | -38.72840 | 160.57550 | 40094 ft | 434 kts | 301° |
| 2026-05-05 07:19 | -38.69654 | 160.50976 | 40093 ft | 434 kts | 301° |
| 2026-05-05 07:19 | -38.66468 | 160.44414 | 40093 ft | 434 kts | 301° |
| 2026-05-05 07:20 | -38.63296 | 160.37896 | 40088 ft | 434 kts | 301° |
| 2026-05-05 07:20 | -38.60101 | 160.31345 | 40087 ft | 434 kts | 301° |
| 2026-05-05 07:21 | -38.56901 | 160.24794 | 40086 ft | 434 kts | 301° |
| 2026-05-05 07:21 | -38.53700 | 160.18258 | 40082 ft | 434 kts | 301° |
| 2026-05-05 07:22 | -38.50494 | 160.11723 | 40081 ft | 433 kts | 301° |
| 2026-05-05 07:22 | -38.47308 | 160.05241 | 40078 ft | 433 kts | 301° |
| 2026-05-05 07:23 | -38.44104 | 159.98736 | 40080 ft | 433 kts | 301° |
| 2026-05-05 07:23 | -38.40892 | 159.92228 | 40075 ft | 433 kts | 302° |
| 2026-05-05 07:24 | -38.37679 | 159.85732 | 40068 ft | 433 kts | 302° |
| 2026-05-05 07:24 | -38.34465 | 159.79246 | 40072 ft | 433 kts | 302° |
| 2026-05-05 07:25 | -38.31244 | 159.72758 | 40070 ft | 433 kts | 302° |
| 2026-05-05 07:25 | -38.28041 | 159.66322 | 40070 ft | 433 kts | 302° |
| 2026-05-05 07:26 | -38.24797 | 159.59815 | 40067 ft | 433 kts | 302° |
| 2026-05-05 07:26 | -38.21590 | 159.53394 | 40067 ft | 433 kts | 302° |
| 2026-05-05 07:27 | -38.18359 | 159.46939 | 40063 ft | 433 kts | 302° |
| 2026-05-05 07:27 | -38.15128 | 159.40497 | 40057 ft | 433 kts | 302° |
| 2026-05-05 07:28 | -38.11887 | 159.34048 | 40057 ft | 433 kts | 302° |
| 2026-05-05 07:28 | -38.08647 | 159.27611 | 40057 ft | 432 kts | 302° |
| 2026-05-05 07:29 | -38.05404 | 159.21184 | 40056 ft | 432 kts | 302° |
| 2026-05-05 07:29 | -38.02177 | 159.14799 | 40056 ft | 432 kts | 302° |
| 2026-05-05 07:30 | -37.98930 | 159.08388 | 40053 ft | 432 kts | 302° |
| 2026-05-05 07:30 | -37.94056 | 158.98787 | 40050 ft | 432 kts | 302° |
| 2026-05-05 07:31 | -37.90800 | 158.92391 | 40050 ft | 432 kts | 302° |
| 2026-05-05 07:31 | -37.87540 | 158.85997 | 40050 ft | 432 kts | 302° |
| 2026-05-05 07:32 | -37.84279 | 158.79615 | 40047 ft | 432 kts | 302° |
| 2026-05-05 07:32 | -37.81016 | 158.73240 | 40046 ft | 432 kts | 302° |
| 2026-05-05 07:33 | -37.77744 | 158.66862 | 40049 ft | 432 kts | 302° |
| 2026-05-05 07:33 | -37.74472 | 158.60495 | 40046 ft | 432 kts | 302° |
| 2026-05-05 07:34 | -37.71196 | 158.54132 | 40048 ft | 432 kts | 302° |
| 2026-05-05 07:34 | -37.67935 | 158.47812 | 40045 ft | 432 kts | 302° |
| 2026-05-05 07:35 | -37.64643 | 158.41443 | 40047 ft | 432 kts | 302° |
| 2026-05-05 07:35 | -37.61355 | 158.35096 | 40048 ft | 433 kts | 302° |
| 2026-05-05 07:36 | -37.58057 | 158.28740 | 40047 ft | 433 kts | 303° |
| 2026-05-05 07:36 | -37.54762 | 158.22402 | 40046 ft | 433 kts | 303° |
| 2026-05-05 07:37 | -37.51455 | 158.16053 | 40046 ft | 433 kts | 303° |
| 2026-05-05 07:37 | -37.48144 | 158.09711 | 40046 ft | 433 kts | 303° |
| 2026-05-05 07:38 | -37.44851 | 158.03414 | 40046 ft | 433 kts | 303° |
| 2026-05-05 07:38 | -37.41531 | 157.97078 | 40051 ft | 433 kts | 303° |
| 2026-05-05 07:39 | -37.38202 | 157.90737 | 40049 ft | 434 kts | 303° |
| 2026-05-05 07:39 | -37.34876 | 157.84413 | 40052 ft | 434 kts | 303° |
| 2026-05-05 07:40 | -37.31556 | 157.78116 | 40050 ft | 434 kts | 303° |
| 2026-05-05 07:40 | -37.28213 | 157.71784 | 40051 ft | 435 kts | 303° |
| 2026-05-05 07:41 | -37.25433 | 157.66530 | 40050 ft | 435 kts | 303° |
| 2026-05-05 07:41 | -37.22075 | 157.60193 | 40049 ft | 435 kts | 303° |
| 2026-05-05 07:42 | -37.18712 | 157.53857 | 40048 ft | 436 kts | 303° |
| 2026-05-05 07:42 | -37.15351 | 157.47539 | 40053 ft | 436 kts | 303° |
| 2026-05-05 07:43 | -37.11982 | 157.41217 | 40050 ft | 437 kts | 303° |
| 2026-05-05 07:43 | -37.08603 | 157.34889 | 40054 ft | 437 kts | 303° |
| 2026-05-05 07:44 | -37.05239 | 157.28600 | 40051 ft | 437 kts | 303° |
| 2026-05-05 07:44 | -37.01853 | 157.22281 | 40058 ft | 437 kts | 303° |
| 2026-05-05 07:45 | -36.98453 | 157.15950 | 40057 ft | 437 kts | 303° |
| 2026-05-05 07:45 | -36.95078 | 157.09675 | 40060 ft | 437 kts | 303° |
| 2026-05-05 07:46 | -36.93664 | 157.07050 | 40061 ft | 0 kts | 303° |
| 2026-05-05 07:46 | -36.92379 | 157.04609 | 40196 ft | 435 kts | 303° |
| 2026-05-05 07:46 | -36.90693 | 157.01457 | 40094 ft | 437 kts | 303° |
| 2026-05-05 07:46 | -36.88986 | 156.98310 | 40059 ft | 437 kts | 303° |
| 2026-05-05 07:47 | -36.85562 | 156.92025 | 40060 ft | 437 kts | 303° |
| 2026-05-05 07:47 | -36.82147 | 156.85744 | 40059 ft | 437 kts | 303° |
| 2026-05-05 07:48 | -36.78730 | 156.79453 | 40065 ft | 437 kts | 303° |
| 2026-05-05 07:48 | -36.75320 | 156.73179 | 40062 ft | 437 kts | 303° |
| 2026-05-05 07:49 | -36.71925 | 156.66946 | 40065 ft | 437 kts | 303° |
| 2026-05-05 07:49 | -36.68504 | 156.60678 | 40068 ft | 437 kts | 303° |
| 2026-05-05 07:50 | -36.65088 | 156.54431 | 40067 ft | 436 kts | 303° |
| 2026-05-05 07:50 | -36.61683 | 156.48216 | 40071 ft | 436 kts | 303° |
| 2026-05-05 07:51 | -36.58261 | 156.41981 | 40070 ft | 436 kts | 303° |
| 2026-05-05 07:51 | -36.54837 | 156.35753 | 40072 ft | 436 kts | 303° |
| 2026-05-05 07:52 | -36.51413 | 156.29537 | 40078 ft | 436 kts | 303° |
| 2026-05-05 07:52 | -36.47988 | 156.23329 | 40077 ft | 435 kts | 303° |
| 2026-05-05 07:53 | -36.44553 | 156.17117 | 40077 ft | 435 kts | 303° |
| 2026-05-05 07:53 | -36.41122 | 156.10922 | 40082 ft | 435 kts | 303° |
| 2026-05-05 07:54 | -36.37711 | 156.04774 | 40080 ft | 435 kts | 303° |
| 2026-05-05 07:54 | -36.34275 | 155.98593 | 40082 ft | 435 kts | 303° |
| 2026-05-05 07:55 | -36.30841 | 155.92425 | 40084 ft | 434 kts | 303° |
| 2026-05-05 07:55 | -36.27403 | 155.86264 | 40086 ft | 434 kts | 303° |
| 2026-05-05 07:56 | -36.23966 | 155.80112 | 40087 ft | 434 kts | 303° |
| 2026-05-05 07:56 | -36.20524 | 155.73965 | 40086 ft | 434 kts | 303° |
| 2026-05-05 07:57 | -36.17082 | 155.67827 | 40089 ft | 434 kts | 303° |
| 2026-05-05 07:57 | -36.13657 | 155.61731 | 40093 ft | 434 kts | 303° |
| 2026-05-05 07:58 | -36.10208 | 155.55605 | 40092 ft | 434 kts | 303° |
| 2026-05-05 07:58 | -36.06755 | 155.49482 | 40095 ft | 434 kts | 303° |
| 2026-05-05 07:59 | -36.03302 | 155.43369 | 40095 ft | 434 kts | 303° |
| 2026-05-05 07:59 | -35.99862 | 155.37289 | 40098 ft | 434 kts | 303° |
| 2026-05-05 08:00 | -35.96406 | 155.31193 | 40098 ft | 433 kts | 303° |
| 2026-05-05 08:00 | -35.92943 | 155.25094 | 40100 ft | 433 kts | 303° |
| 2026-05-05 08:01 | -35.89480 | 155.19006 | 40097 ft | 433 kts | 303° |
| 2026-05-05 08:01 | -35.86015 | 155.12926 | 40098 ft | 433 kts | 303° |
| 2026-05-05 08:02 | -35.82546 | 155.06850 | 40099 ft | 433 kts | 303° |
| 2026-05-05 08:02 | -35.79092 | 155.00810 | 40105 ft | 433 kts | 303° |
| 2026-05-05 08:03 | -35.75616 | 154.94743 | 40103 ft | 433 kts | 303° |
| 2026-05-05 08:03 | -35.72134 | 154.88676 | 40104 ft | 433 kts | 303° |
| 2026-05-05 08:04 | -35.68660 | 154.82633 | 40104 ft | 433 kts | 303° |
| 2026-05-05 08:04 | -35.65185 | 154.76598 | 40106 ft | 433 kts | 303° |
| 2026-05-05 08:05 | -35.62183 | 154.71394 | 40110 ft | 433 kts | 303° |
| 2026-05-05 08:05 | -35.58439 | 154.65575 | 40110 ft | 434 kts | 308° |
| 2026-05-05 08:06 | -35.54520 | 154.59934 | 40109 ft | 434 kts | 308° |
| 2026-05-05 08:06 | -35.50601 | 154.54351 | 40108 ft | 434 kts | 308° |
| 2026-05-05 08:07 | -35.46656 | 154.48731 | 40112 ft | 434 kts | 308° |
| 2026-05-05 08:07 | -35.42717 | 154.43116 | 40109 ft | 434 kts | 308° |
| 2026-05-05 08:08 | -35.38777 | 154.37505 | 40109 ft | 434 kts | 308° |
| 2026-05-05 08:08 | -35.34841 | 154.31907 | 40112 ft | 434 kts | 308° |
| 2026-05-05 08:09 | -35.30896 | 154.26308 | 40112 ft | 434 kts | 308° |
| 2026-05-05 08:09 | -35.26954 | 154.20723 | 40115 ft | 433 kts | 308° |
| 2026-05-05 08:10 | -35.23012 | 154.15146 | 40116 ft | 433 kts | 308° |
| 2026-05-05 08:10 | -35.19092 | 154.09610 | 40116 ft | 433 kts | 308° |
| 2026-05-05 08:11 | -35.15145 | 154.04045 | 40115 ft | 432 kts | 308° |
| 2026-05-05 08:11 | -35.11199 | 153.98489 | 40112 ft | 432 kts | 308° |
| 2026-05-05 08:12 | -35.07255 | 153.92946 | 40116 ft | 432 kts | 308° |
| 2026-05-05 08:12 | -35.03316 | 153.87417 | 40117 ft | 432 kts | 308° |
| 2026-05-05 08:13 | -34.99371 | 153.81891 | 40116 ft | 431 kts | 308° |
| 2026-05-05 08:13 | -34.95424 | 153.76369 | 40115 ft | 431 kts | 308° |
| 2026-05-05 08:14 | -34.91486 | 153.70869 | 40116 ft | 431 kts | 308° |
| 2026-05-05 08:14 | -34.87574 | 153.65414 | 40122 ft | 430 kts | 308° |
| 2026-05-05 08:15 | -34.83632 | 153.59927 | 40117 ft | 430 kts | 308° |
| 2026-05-05 08:15 | -34.79695 | 153.54454 | 40117 ft | 429 kts | 309° |
| 2026-05-05 08:16 | -34.75759 | 153.48991 | 40121 ft | 429 kts | 309° |
| 2026-05-05 08:16 | -34.71818 | 153.43530 | 40118 ft | 429 kts | 309° |
| 2026-05-05 08:17 | -34.67907 | 153.38120 | 40123 ft | 428 kts | 309° |
| 2026-05-05 08:17 | -34.63970 | 153.32682 | 40123 ft | 428 kts | 309° |
| 2026-05-05 08:18 | -34.60039 | 153.27260 | 40119 ft | 428 kts | 309° |
| 2026-05-05 08:18 | -34.58070 | 153.24547 | 39912 ft | 427 kts | 309° |
| 2026-05-05 08:18 | -34.56103 | 153.21841 | 39691 ft | 426 kts | 309° |
| 2026-05-05 08:19 | -34.54140 | 153.19141 | 39467 ft | 425 kts | 309° |
| 2026-05-05 08:19 | -34.52185 | 153.16455 | 39142 ft | 423 kts | 309° |
| 2026-05-05 08:19 | -34.50244 | 153.13791 | 38568 ft | 422 kts | 309° |
| 2026-05-05 08:19 | -34.48301 | 153.11124 | 37903 ft | 420 kts | 309° |
| 2026-05-05 08:20 | -34.46370 | 153.08475 | 37277 ft | 419 kts | 309° |
| 2026-05-05 08:20 | -34.44444 | 153.05835 | 36651 ft | 418 kts | 309° |
| 2026-05-05 08:20 | -34.42520 | 153.03199 | 36009 ft | 417 kts | 309° |
| 2026-05-05 08:20 | -34.40625 | 153.00605 | 35359 ft | 416 kts | 309° |
| 2026-05-05 08:21 | -34.38709 | 152.97984 | 34681 ft | 417 kts | 309° |
| 2026-05-05 08:21 | -34.36782 | 152.95351 | 33903 ft | 418 kts | 309° |
| 2026-05-05 08:21 | -34.34848 | 152.92710 | 33085 ft | 419 kts | 310° |
| 2026-05-05 08:21 | -34.32914 | 152.90071 | 32299 ft | 419 kts | 310° |
| 2026-05-05 08:22 | -34.30973 | 152.87427 | 31517 ft | 420 kts | 310° |
| 2026-05-05 08:22 | -34.29030 | 152.84779 | 30740 ft | 422 kts | 310° |
| 2026-05-05 08:22 | -34.27091 | 152.82141 | 30216 ft | 417 kts | 310° |
| 2026-05-05 08:22 | -34.25415 | 152.79863 | 29678 ft | 414 kts | 310° |
| 2026-05-05 08:23 | -34.23510 | 152.77278 | 29096 ft | 410 kts | 310° |
| 2026-05-05 08:23 | -34.21623 | 152.74719 | 28563 ft | 406 kts | 310° |
| 2026-05-05 08:23 | -34.19755 | 152.72186 | 28012 ft | 402 kts | 310° |
| 2026-05-05 08:23 | -34.17905 | 152.69679 | 27474 ft | 398 kts | 310° |
| 2026-05-05 08:24 | -34.16070 | 152.67191 | 26938 ft | 395 kts | 310° |
| 2026-05-05 08:24 | -34.14246 | 152.64721 | 26412 ft | 393 kts | 310° |
| 2026-05-05 08:24 | -34.12431 | 152.62265 | 25873 ft | 391 kts | 310° |
| 2026-05-05 08:24 | -34.10635 | 152.59805 | 25346 ft | 389 kts | 308° |
| 2026-05-05 08:25 | -34.09128 | 152.57161 | 24834 ft | 388 kts | 298° |
| 2026-05-05 08:25 | -34.08114 | 152.54148 | 24310 ft | 389 kts | 285° |
| 2026-05-05 08:25 | -34.07647 | 152.50938 | 23777 ft | 389 kts | 277° |
| 2026-05-05 08:25 | -34.07356 | 152.47693 | 23169 ft | 389 kts | 277° |
| 2026-05-05 08:26 | -34.07066 | 152.44458 | 22621 ft | 387 kts | 277° |
| 2026-05-05 08:26 | -34.06770 | 152.41243 | 22034 ft | 385 kts | 277° |
| 2026-05-05 08:26 | -34.06467 | 152.38002 | 20985 ft | 395 kts | 277° |
| 2026-05-05 08:26 | -34.06153 | 152.34686 | 20293 ft | 397 kts | 277° |
| 2026-05-05 08:27 | -34.05840 | 152.31382 | 19762 ft | 395 kts | 277° |
| 2026-05-05 08:27 | -34.05529 | 152.28105 | 19224 ft | 393 kts | 276° |
| 2026-05-05 08:27 | -34.05217 | 152.24831 | 18686 ft | 391 kts | 276° |
| 2026-05-05 08:27 | -34.04904 | 152.21569 | 18101 ft | 390 kts | 276° |
| 2026-05-05 08:28 | -34.04594 | 152.18335 | 17535 ft | 387 kts | 276° |
| 2026-05-05 08:28 | -34.04284 | 152.15127 | 16992 ft | 384 kts | 276° |
| 2026-05-05 08:28 | -34.03977 | 152.11942 | 16454 ft | 381 kts | 276° |
| 2026-05-05 08:28 | -34.03670 | 152.08778 | 15920 ft | 378 kts | 276° |
| 2026-05-05 08:29 | -34.03365 | 152.05638 | 15380 ft | 375 kts | 276° |
| 2026-05-05 08:29 | -34.03064 | 152.02571 | 14864 ft | 372 kts | 276° |
| 2026-05-05 08:29 | -34.02751 | 151.99481 | 14325 ft | 370 kts | 276° |
| 2026-05-05 08:30 | -34.02133 | 151.93378 | 13223 ft | 363 kts | 276° |
| 2026-05-05 08:30 | -34.01829 | 151.90373 | 12686 ft | 360 kts | 276° |
| 2026-05-05 08:30 | -34.01528 | 151.87395 | 12165 ft | 356 kts | 276° |
| 2026-05-05 08:30 | -34.01227 | 151.84438 | 11642 ft | 354 kts | 276° |
| 2026-05-05 08:31 | -34.01030 | 151.82495 | 11296 ft | 352 kts | 276° |
| 2026-05-05 08:31 | -34.00733 | 151.79577 | 10825 ft | 347 kts | 276° |
| 2026-05-05 08:31 | -34.00444 | 151.76748 | 10652 ft | 333 kts | 276° |
| 2026-05-05 08:31 | -34.00166 | 151.74042 | 10507 ft | 319 kts | 276° |
| 2026-05-05 08:32 | -33.99898 | 151.71444 | 10367 ft | 305 kts | 276° |
| 2026-05-05 08:32 | -33.99656 | 151.69093 | 10237 ft | 293 kts | 276° |
| 2026-05-05 08:32 | -33.99410 | 151.66704 | 10118 ft | 282 kts | 276° |
| 2026-05-05 08:32 | -33.99171 | 151.64395 | 9961 ft | 271 kts | 276° |
| 2026-05-05 08:33 | -33.98936 | 151.62135 | 9596 ft | 273 kts | 276° |
| 2026-05-05 08:33 | -33.98701 | 151.59864 | 9252 ft | 273 kts | 276° |
| 2026-05-05 08:33 | -33.98465 | 151.57600 | 8937 ft | 272 kts | 276° |
| 2026-05-05 08:33 | -33.98228 | 151.55338 | 8768 ft | 271 kts | 276° |
| 2026-05-05 08:34 | -33.97996 | 151.53116 | 8548 ft | 271 kts | 276° |
| 2026-05-05 08:34 | -33.97763 | 151.50868 | 8358 ft | 270 kts | 276° |
| 2026-05-05 08:34 | -33.97529 | 151.48618 | 8149 ft | 269 kts | 276° |
| 2026-05-05 08:34 | -33.97303 | 151.46460 | 7958 ft | 269 kts | 276° |
| 2026-05-05 08:35 | -33.97070 | 151.44230 | 7754 ft | 269 kts | 276° |
| 2026-05-05 08:35 | -33.96835 | 151.41996 | 7549 ft | 268 kts | 276° |
| 2026-05-05 08:35 | -33.96601 | 151.39771 | 7347 ft | 268 kts | 276° |
| 2026-05-05 08:35 | -33.96371 | 151.37585 | 7148 ft | 267 kts | 276° |
| 2026-05-05 08:36 | -33.96139 | 151.35369 | 6964 ft | 266 kts | 276° |
| 2026-05-05 08:36 | -33.95912 | 151.33158 | 6746 ft | 266 kts | 276° |
| 2026-05-05 08:36 | -33.95686 | 151.30944 | 6547 ft | 265 kts | 276° |
| 2026-05-05 08:36 | -33.95464 | 151.28773 | 6347 ft | 265 kts | 276° |
| 2026-05-05 08:37 | -33.95235 | 151.26547 | 6127 ft | 264 kts | 276° |
| 2026-05-05 08:37 | -33.95011 | 151.24379 | 5946 ft | 264 kts | 276° |
| 2026-05-05 08:37 | -33.94784 | 151.22178 | 5740 ft | 264 kts | 275° |
| 2026-05-05 08:37 | -33.94559 | 151.20000 | 5553 ft | 259 kts | 275° |
| 2026-05-05 08:38 | -33.94334 | 151.17871 | 5252 ft | 256 kts | 275° |
| 2026-05-05 08:38 | -33.94106 | 151.15778 | 4932 ft | 253 kts | 275° |
| 2026-05-05 08:38 | -33.93873 | 151.13685 | 4640 ft | 250 kts | 275° |
| 2026-05-05 08:38 | -33.93642 | 151.11621 | 4360 ft | 247 kts | 275° |
| 2026-05-05 08:39 | -33.93408 | 151.09587 | 4110 ft | 243 kts | 276° |
| 2026-05-05 08:39 | -33.92982 | 151.07643 | 3885 ft | 238 kts | 289° |
| 2026-05-05 08:39 | -33.92322 | 151.05843 | 3691 ft | 232 kts | 292° |
| 2026-05-05 08:39 | -33.91635 | 151.04129 | 3560 ft | 222 kts | 296° |
| 2026-05-05 08:40 | -33.90644 | 151.02766 | 3453 ft | 218 kts | 319° |
| 2026-05-05 08:40 | -33.89440 | 151.01663 | 3336 ft | 218 kts | 322° |
| 2026-05-05 08:40 | -33.88204 | 151.00589 | 3203 ft | 219 kts | 322° |
| 2026-05-05 08:40 | -33.86959 | 150.99514 | 3077 ft | 219 kts | 322° |
| 2026-05-05 08:41 | -33.85638 | 150.98619 | 3008 ft | 222 kts | 340° |
| 2026-05-05 08:41 | -33.84125 | 150.98248 | 3014 ft | 222 kts | 352° |
| 2026-05-05 08:41 | -33.82593 | 150.98012 | 3005 ft | 222 kts | 353° |
| 2026-05-05 08:41 | -33.81064 | 150.97784 | 3011 ft | 222 kts | 352° |
| 2026-05-05 08:42 | -33.79536 | 150.97560 | 3007 ft | 221 kts | 353° |
| 2026-05-05 08:42 | -33.78008 | 150.97336 | 3010 ft | 221 kts | 353° |
| 2026-05-05 08:42 | -33.76496 | 150.97112 | 3005 ft | 214 kts | 353° |
| 2026-05-05 08:42 | -33.75028 | 150.97069 | 2994 ft | 213 kts | 11° |
| 2026-05-05 08:43 | -33.73704 | 150.97800 | 3001 ft | 209 kts | 43° |
| 2026-05-05 08:43 | -33.72842 | 150.99157 | 3025 ft | 203 kts | 65° |
| 2026-05-05 08:43 | -33.72364 | 151.00630 | 3006 ft | 201 kts | 81° |
| 2026-05-05 08:43 | -33.72361 | 151.02282 | 3022 ft | 196 kts | 103° |
| 2026-05-05 08:44 | -33.72659 | 151.03876 | 3010 ft | 195 kts | 108° |
| 2026-05-05 08:44 | -33.73019 | 151.05472 | 3007 ft | 200 kts | 109° |
| 2026-05-05 08:44 | -33.73398 | 151.07093 | 3007 ft | 201 kts | 109° |
| 2026-05-05 08:44 | -33.73798 | 151.08708 | 3010 ft | 201 kts | 111° |
| 2026-05-05 08:45 | -33.74375 | 151.10220 | 3007 ft | 199 kts | 124° |
| 2026-05-05 08:45 | -33.75207 | 151.11500 | 3011 ft | 197 kts | 137° |
| 2026-05-05 08:45 | -33.76269 | 151.12515 | 3008 ft | 195 kts | 149° |
| 2026-05-05 08:45 | -33.77518 | 151.13150 | 3011 ft | 194 kts | 166° |
| 2026-05-05 08:46 | -33.78837 | 151.13496 | 2869 ft | 194 kts | 169° |
| 2026-05-05 08:46 | -33.80156 | 151.13835 | 2615 ft | 194 kts | 168° |
| 2026-05-05 08:46 | -33.81472 | 151.14184 | 2370 ft | 190 kts | 168° |
| 2026-05-05 08:46 | -33.82749 | 151.14516 | 2100 ft | 186 kts | 169° |
| 2026-05-05 08:47 | -33.83994 | 151.14838 | 1834 ft | 176 kts | 168° |
| 2026-05-05 08:47 | -33.85144 | 151.15138 | 1613 ft | 162 kts | 169° |
| 2026-05-05 08:47 | -33.86206 | 151.15414 | 1383 ft | 150 kts | 170° |
| 2026-05-05 08:47 | -33.87177 | 151.15667 | 1193 ft | 137 kts | 170° |
| 2026-05-05 08:48 | -33.88101 | 151.15905 | 1022 ft | 134 kts | 170° |
| 2026-05-05 08:48 | -33.89011 | 151.16140 | 824 ft | 133 kts | 169° |
| 2026-05-05 08:48 | -33.89916 | 151.16375 | 634 ft | 136 kts | 169° |
| 2026-05-05 08:48 | -33.90812 | 151.16609 | 613 ft | 141 kts | 169° |
| 2026-05-05 08:49 | -33.91785 | 151.16869 | 409 ft | 143 kts | 169° |
| 2026-05-05 08:49 | -33.92737 | 151.17124 | 219 ft | 138 kts | 168° |
| 2026-05-05 08:49 | -33.93665 | 151.17358 | 34 ft | 130 kts | 169° |
| 2026-05-05 08:49 | -33.94367 | 151.17531 | 36 ft | 75 kts | 167° |
| 2026-05-05 08:50 | -33.94693 | 151.17615 | 35 ft | 19 kts | 168° |
| 2026-05-05 08:50 | -33.94768 | 151.17634 | 35 ft | 12 kts | 168° |
| 2026-05-05 08:50 | -33.94877 | 151.17648 | 35 ft | 17 kts | 176° |
| 2026-05-05 08:50 | -33.95002 | 151.17645 | 34 ft | 18 kts | 187° |
| 2026-05-05 08:51 | -33.95074 | 151.17630 | 34 ft | 0 kts | 191° |
| 2026-05-05 08:52 | -33.95075 | 151.17630 | 34 ft | 1 kts | 191° |
| 2026-05-05 08:52 | -33.95106 | 151.17622 | 34 ft | 8 kts | 195° |
| 2026-05-05 08:53 | -33.95148 | 151.17582 | 35 ft | 7 kts | 240° |
| 2026-05-05 08:53 | -33.95143 | 151.17540 | 36 ft | 4 kts | 307° |
| 2026-05-05 08:53 | -33.95110 | 151.17521 | 36 ft | 11 kts | 342° |
| 2026-05-05 08:53 | -33.95021 | 151.17497 | 36 ft | 14 kts | 347° |
| 2026-05-05 08:54 | -33.94915 | 151.17470 | 36 ft | 17 kts | 348° |
| 2026-05-05 08:54 | -33.94794 | 151.17438 | 36 ft | 19 kts | 347° |
| 2026-05-05 08:54 | -33.94663 | 151.17404 | 37 ft | 20 kts | 348° |
| 2026-05-05 08:54 | -33.94517 | 151.17366 | 37 ft | 22 kts | 348° |
| 2026-05-05 08:55 | -33.94388 | 151.17333 | 37 ft | 20 kts | 348° |
| 2026-05-05 08:55 | -33.94246 | 151.17296 | 36 ft | 22 kts | 348° |
| 2026-05-05 08:55 | -33.94087 | 151.17255 | 35 ft | 24 kts | 348° |
| 2026-05-05 08:55 | -33.93917 | 151.17211 | 35 ft | 26 kts | 348° |
| 2026-05-05 08:56 | -33.93809 | 151.17183 | 35 ft | 4 kts | 348° |
| 2026-05-05 08:56 | -33.93769 | 151.17173 | 34 ft | 7 kts | 348° |
| 2026-05-05 08:56 | -33.93755 | 151.17169 | 35 ft | 0 kts | 348° |
| 2026-05-05 08:56 | -33.93750 | 151.17168 | 35 ft | 4 kts | 348° |
| 2026-05-05 08:57 | -33.93712 | 151.17137 | 35 ft | 5 kts | 292° |
| 2026-05-05 08:57 | -33.93712 | 151.17093 | 36 ft | 6 kts | 276° |
| 2026-05-05 08:57 | -33.93710 | 151.17037 | 36 ft | 7 kts | 261° |
| 2026-05-05 08:57 | -33.93723 | 151.16972 | 36 ft | 5 kts | 255° |
| 2026-05-05 08:58 | -33.93726 | 151.16961 | 36 ft | 0 kts | 255° |
| 2026-05-05 08:58 | -33.93726 | 151.16960 | 36 ft | 0 kts | 255° |
| 2026-05-05 08:58 | -33.93726 | 151.16959 | 36 ft | 0 kts | 255° |
| 2026-05-05 08:58 | -33.93728 | 151.16952 | 36 ft | 0 kts | 255° |
| 2026-05-05 08:59 | -33.93728 | 151.16951 | 36 ft | 2 kts | 255° |
| 2026-05-05 08:59 | -33.93729 | 151.16945 | 36 ft | 1 kts | 255° |
| 2026-05-05 08:59 | -33.93731 | 151.16937 | 36 ft | 0 kts | 255° |
| 2026-05-05 09:00 | -33.93731 | 151.16936 | 36 ft | 0 kts | 255° |